createdAt,value
2023-05-20T00:02:20.308Z,19.90
2023-05-20T00:04:47.564Z,18.80
2023-05-20T00:07:14.732Z,16.10
2023-05-20T00:09:41.568Z,15.70
2023-05-20T00:12:08.450Z,17.50
2023-05-20T00:14:36.149Z,19.20
2023-05-20T00:17:03.086Z,16.00
2023-05-20T00:19:30.354Z,17.60
2023-05-20T00:21:57.744Z,17.80
2023-05-20T00:24:24.811Z,21.80
2023-05-20T00:26:51.807Z,22.20
2023-05-20T00:29:24.032Z,19.90
2023-05-20T00:31:51.084Z,21.20
2023-05-20T00:34:17.999Z,18.80
2023-05-20T00:36:45.725Z,19.00
2023-05-20T00:39:12.749Z,16.30
2023-05-20T00:41:40.284Z,22.30
2023-05-20T00:44:12.169Z,14.80
2023-05-20T00:46:39.090Z,22.50
2023-05-20T00:49:06.210Z,14.30
2023-05-20T00:51:33.488Z,16.90
2023-05-20T00:54:00.328Z,16.40
2023-05-20T00:56:27.269Z,12.50
2023-05-20T00:58:59.191Z,18.70
2023-05-20T01:01:27.796Z,17.00
2023-05-20T01:03:54.878Z,14.90
2023-05-20T01:06:23.629Z,16.80
2023-05-20T01:08:50.862Z,18.80
2023-05-20T01:11:30.759Z,18.70
2023-05-20T01:13:59.938Z,20.60
2023-05-20T01:16:27.274Z,14.80
2023-05-20T01:19:00.794Z,22.40
2023-05-20T01:21:30.242Z,16.50
2023-05-20T01:23:57.110Z,17.50
2023-05-20T01:26:26.784Z,24.30
2023-05-20T01:28:53.695Z,22.00
2023-05-20T01:31:24.112Z,17.10
2023-05-20T01:33:53.890Z,21.80
2023-05-20T01:36:21.100Z,16.70
2023-05-20T01:38:48.924Z,18.20
2023-05-20T01:41:16.339Z,17.70
2023-05-20T01:43:43.773Z,21.80
2023-05-20T01:46:10.829Z,14.10
2023-05-20T01:48:37.958Z,17.40
2023-05-20T01:51:06.669Z,22.10
2023-05-20T01:53:33.539Z,20.70
2023-05-20T01:56:00.470Z,17.50
2023-05-20T01:58:28.649Z,17.50
2023-05-20T02:00:55.670Z,23.80
2023-05-20T02:03:28.192Z,19.80
2023-05-20T02:05:55.460Z,20.90
2023-05-20T02:08:23.498Z,21.60
2023-05-20T02:10:50.730Z,19.50
2023-05-20T02:13:22.689Z,16.40
2023-05-20T02:15:50.931Z,21.00
2023-05-20T02:18:18.194Z,23.80
2023-05-20T02:20:45.148Z,27.60
2023-05-20T02:23:12.079Z,22.30
2023-05-20T02:25:40.069Z,25.20
2023-05-20T02:28:10.541Z,28.90
2023-05-20T02:30:38.528Z,25.00
2023-05-20T02:33:06.476Z,25.70
2023-05-20T02:35:33.530Z,24.60
2023-05-20T02:38:00.826Z,23.70
2023-05-20T02:40:27.680Z,24.60
2023-05-20T02:42:54.491Z,27.10
2023-05-20T02:45:21.370Z,24.40
2023-05-20T02:47:48.374Z,28.20
2023-05-20T02:50:16.043Z,25.20
2023-05-20T02:52:45.328Z,25.90
2023-05-20T02:55:12.427Z,25.40
2023-05-20T02:57:40.219Z,32.30
2023-05-20T03:00:12.760Z,24.00
2023-05-20T03:02:40.744Z,24.00
2023-05-20T03:05:08.184Z,23.30
2023-05-20T03:07:36.789Z,25.50
2023-05-20T03:10:07.545Z,21.80
2023-05-20T03:12:35.131Z,20.60
2023-05-20T03:15:02.046Z,24.60
2023-05-20T03:17:29.733Z,24.10
2023-05-20T03:19:57.013Z,19.00
2023-05-20T03:22:24.058Z,19.40
2023-05-20T03:24:52.305Z,21.50
2023-05-20T03:27:19.444Z,18.60
2023-05-20T03:29:47.717Z,27.10
2023-05-20T03:32:15.169Z,20.40
2023-05-20T03:34:47.224Z,16.60
2023-05-20T03:37:15.036Z,21.70
2023-05-20T03:39:41.949Z,23.80
2023-05-20T03:42:09.273Z,23.30
2023-05-20T03:44:36.855Z,24.90
2023-05-20T03:47:03.855Z,25.00
2023-05-20T03:49:30.980Z,30.40
2023-05-20T03:51:58.876Z,26.20
2023-05-20T03:54:27.574Z,23.50
2023-05-20T03:56:54.509Z,25.00
2023-05-20T03:59:21.834Z,26.90
2023-05-20T04:01:48.842Z,25.30
2023-05-20T04:04:15.959Z,22.20
2023-05-20T04:06:43.412Z,27.30
2023-05-20T04:09:10.723Z,23.20
2023-05-20T04:11:37.679Z,25.70
2023-05-20T04:14:04.964Z,22.00
2023-05-20T04:16:33.002Z,20.10
2023-05-20T04:19:01.010Z,21.80
2023-05-20T04:21:28.049Z,18.70
2023-05-20T04:23:55.214Z,21.30
2023-05-20T04:26:28.926Z,17.40
2023-05-20T04:28:58.612Z,17.90
2023-05-20T04:31:26.483Z,23.90
2023-05-20T04:33:54.379Z,19.40
2023-05-20T04:36:22.543Z,21.00
2023-05-20T04:38:55.527Z,20.20
2023-05-20T04:41:23.550Z,26.20
2023-05-20T04:43:51.223Z,24.00
2023-05-20T04:46:25.171Z,27.00
2023-05-20T04:48:53.350Z,18.60
2023-05-20T04:51:20.178Z,17.20
2023-05-20T04:53:47.684Z,21.40
2023-05-20T04:56:14.926Z,22.80
2023-05-20T04:58:42.797Z,25.00
2023-05-20T05:01:09.916Z,27.50
2023-05-20T05:03:37.055Z,24.50
2023-05-20T05:06:04.814Z,24.70
2023-05-20T05:08:32.518Z,24.10
2023-05-20T05:10:59.823Z,23.00
2023-05-20T05:13:26.892Z,22.90
2023-05-20T05:16:01.179Z,18.80
2023-05-20T05:18:29.436Z,22.80
2023-05-20T05:21:01.352Z,22.70
2023-05-20T05:23:28.988Z,19.20
2023-05-20T05:25:56.846Z,25.20
2023-05-20T05:28:24.297Z,24.10
2023-05-20T05:30:53.756Z,22.00
2023-05-20T05:33:20.941Z,20.10
2023-05-20T05:35:53.592Z,18.80
2023-05-20T05:38:21.941Z,28.10
2023-05-20T05:40:48.939Z,21.40
2023-05-20T05:43:16.608Z,20.50
2023-05-20T05:45:44.245Z,20.60
2023-05-20T05:48:11.638Z,20.00
2023-05-20T05:50:44.761Z,20.40
2023-05-20T05:53:12.235Z,49.60
2023-05-20T05:55:40.038Z,31.80
2023-05-20T05:58:07.659Z,24.30
2023-05-20T06:00:34.864Z,20.70
2023-05-20T06:03:02.194Z,36.20
2023-05-20T06:05:33.714Z,23.70
2023-05-20T06:08:01.205Z,20.10
2023-05-20T06:10:28.062Z,22.80
2023-05-20T06:12:57.449Z,32.00
2023-05-20T06:15:25.634Z,26.30
2023-05-20T06:17:52.778Z,19.70
2023-05-20T06:20:20.526Z,19.70
2023-05-20T06:22:47.790Z,29.50
2023-05-20T06:25:14.785Z,21.20
2023-05-20T06:27:42.278Z,34.40
2023-05-20T06:30:11.990Z,67.50
2023-05-20T06:32:40.665Z,87.70
2023-05-20T06:35:08.103Z,29.40
2023-05-20T06:37:36.417Z,27.50
2023-05-20T06:40:04.866Z,25.80
2023-05-20T06:42:37.683Z,35.70
2023-05-20T06:45:06.269Z,26.90
2023-05-20T06:47:41.869Z,32.30
2023-05-20T06:50:10.467Z,27.90
2023-05-20T06:52:37.628Z,28.10
2023-05-20T06:55:05.907Z,28.50
2023-05-20T06:57:34.187Z,31.10
2023-05-20T07:00:07.462Z,29.50
2023-05-20T07:02:39.963Z,27.10
2023-05-20T07:05:07.288Z,27.30
2023-05-20T07:07:34.512Z,41.10
2023-05-20T07:10:01.812Z,28.70
2023-05-20T07:12:28.912Z,26.20
2023-05-20T07:15:00.958Z,24.40
2023-05-20T07:17:29.060Z,20.20
2023-05-20T07:19:56.728Z,23.00
2023-05-20T07:22:23.675Z,22.70
2023-05-20T07:24:58.996Z,32.70
2023-05-20T07:27:26.474Z,27.80
2023-05-20T07:29:54.411Z,16.00
2023-05-20T07:32:26.662Z,21.10
2023-05-20T07:34:53.578Z,20.60
2023-05-20T07:37:20.525Z,18.40
2023-05-20T07:39:47.742Z,18.20
2023-05-20T07:42:14.587Z,14.00
2023-05-20T07:44:44.996Z,16.40
2023-05-20T07:47:13.643Z,16.90
2023-05-20T07:49:41.328Z,17.40
2023-05-20T07:52:08.325Z,14.20
2023-05-20T07:54:36.224Z,14.80
2023-05-20T07:57:03.461Z,15.00
2023-05-20T07:59:30.745Z,12.90
2023-05-20T08:01:58.722Z,13.50
2023-05-20T08:04:26.655Z,13.90
2023-05-20T08:06:54.657Z,15.50
2023-05-20T08:09:28.364Z,14.10
2023-05-20T08:11:55.997Z,17.10
2023-05-20T08:14:23.324Z,15.90
2023-05-20T08:16:55.991Z,13.60
2023-05-20T08:19:25.252Z,7.80
2023-05-20T08:21:52.882Z,11.20
2023-05-20T08:24:19.880Z,10.70
2023-05-20T08:26:47.009Z,9.00
2023-05-20T08:29:14.406Z,11.20
2023-05-20T08:31:41.809Z,12.20
2023-05-20T08:34:09.090Z,11.60
2023-05-20T08:36:36.482Z,10.30
2023-05-20T08:39:04.125Z,12.50
2023-05-20T08:41:31.121Z,11.60
2023-05-20T08:43:59.104Z,9.40
2023-05-20T08:46:26.154Z,7.50
2023-05-20T08:48:54.609Z,8.60
2023-05-20T08:51:27.059Z,15.20
2023-05-20T08:53:54.076Z,8.60
2023-05-20T08:56:21.492Z,9.90
2023-05-20T08:58:48.675Z,10.70
2023-05-20T09:01:16.390Z,9.90
2023-05-20T09:03:44.533Z,7.80
2023-05-20T09:06:17.468Z,7.60
2023-05-20T09:08:44.305Z,10.10
2023-05-20T09:11:11.813Z,10.00
2023-05-20T09:13:44.103Z,9.50
2023-05-20T09:16:11.439Z,6.70
2023-05-20T09:18:39.825Z,5.60
2023-05-20T09:21:06.996Z,11.20
2023-05-20T09:23:37.099Z,12.10
2023-05-20T09:26:04.054Z,9.90
2023-05-20T09:28:37.039Z,9.40
2023-05-20T09:31:05.077Z,9.20
2023-05-20T09:33:35.182Z,8.50
2023-05-20T09:36:07.643Z,8.80
2023-05-20T09:38:39.068Z,8.60
2023-05-20T09:41:08.717Z,5.50
2023-05-20T09:43:36.791Z,7.40
2023-05-20T09:46:03.857Z,7.00
2023-05-20T09:48:34.181Z,6.50
2023-05-20T09:51:02.103Z,10.10
2023-05-20T09:53:34.635Z,6.80
2023-05-20T09:56:02.088Z,7.20
2023-05-20T09:58:29.780Z,5.90
2023-05-20T10:00:56.961Z,5.40
2023-05-20T10:03:24.618Z,5.60
2023-05-20T10:06:10.236Z,7.20
2023-05-20T10:08:41.154Z,8.80
2023-05-20T10:11:33.185Z,8.00
2023-05-20T10:14:39.176Z,7.40
2023-05-20T10:17:11.655Z,6.80
2023-05-20T10:19:38.817Z,8.20
2023-05-20T10:22:07.931Z,7.60
2023-05-20T10:24:58.583Z,4.30
2023-05-20T10:27:25.425Z,6.60
2023-05-20T10:29:56.907Z,10.40
2023-05-20T10:32:31.912Z,4.40
2023-05-20T10:35:04.544Z,6.10
2023-05-20T10:37:41.885Z,4.70
2023-05-20T10:40:13.023Z,5.90
2023-05-20T10:42:47.684Z,5.70
2023-05-20T10:45:28.181Z,6.00
2023-05-20T10:48:04.070Z,3.80
2023-05-20T10:50:35.686Z,8.20
2023-05-20T10:53:07.024Z,5.10
2023-05-20T10:55:38.082Z,4.00
2023-05-20T10:58:05.620Z,7.10
2023-05-20T11:00:37.152Z,4.30
2023-05-20T11:03:05.335Z,4.80
2023-05-20T11:05:32.535Z,9.10
2023-05-20T11:08:07.935Z,7.20
2023-05-20T11:10:38.229Z,8.90
2023-05-20T11:13:12.078Z,7.50
2023-05-20T11:18:14.396Z,9.10
2023-05-20T11:20:43.404Z,6.70
2023-05-20T11:23:14.328Z,4.70
2023-05-20T11:25:41.546Z,5.00
2023-05-20T11:28:15.003Z,5.40
2023-05-20T11:30:42.608Z,6.00
2023-05-20T11:33:12.139Z,7.10
2023-05-20T11:35:46.974Z,11.70
2023-05-20T11:38:14.766Z,9.80
2023-05-20T11:40:55.175Z,4.90
2023-05-20T11:43:23.186Z,8.30
2023-05-20T11:45:55.451Z,5.20
2023-05-20T11:48:23.220Z,10.60
2023-05-20T11:50:55.828Z,7.90
2023-05-20T11:53:28.734Z,9.60
2023-05-20T11:55:57.166Z,5.80
2023-05-20T11:58:26.038Z,5.10
2023-05-20T12:00:59.024Z,8.80
2023-05-20T12:03:33.229Z,6.60
2023-05-20T12:06:01.879Z,9.60
2023-05-20T12:08:29.196Z,16.40
2023-05-20T12:10:56.776Z,8.10
2023-05-20T12:13:24.416Z,8.70
2023-05-20T12:15:51.355Z,9.60
2023-05-20T12:18:18.601Z,9.80
2023-05-20T12:20:45.608Z,7.90
2023-05-20T12:23:12.648Z,6.30
2023-05-20T12:25:39.852Z,7.80
2023-05-20T12:28:07.684Z,6.40
2023-05-20T12:30:35.352Z,7.40
2023-05-20T12:33:03.209Z,11.30
2023-05-20T12:35:39.015Z,11.30
2023-05-20T12:38:06.756Z,16.30
2023-05-20T12:40:35.614Z,13.80
2023-05-20T12:43:08.338Z,6.50
2023-05-20T12:45:35.741Z,13.60
2023-05-20T12:48:03.413Z,8.00
2023-05-20T12:50:37.335Z,9.40
2023-05-20T12:53:05.008Z,4.80
2023-05-20T12:55:32.142Z,11.10
2023-05-20T12:57:59.285Z,8.60
2023-05-20T13:00:26.218Z,6.50
2023-05-20T13:02:54.083Z,8.60
2023-05-20T13:05:26.389Z,10.80
2023-05-20T13:07:53.367Z,6.60
2023-05-20T13:10:20.379Z,5.80
2023-05-20T13:12:47.736Z,5.90
2023-05-20T13:15:15.575Z,7.10
2023-05-20T13:17:42.751Z,8.20
2023-05-20T13:20:10.683Z,8.90
2023-05-20T13:22:37.754Z,8.70
2023-05-20T13:25:05.074Z,10.60
2023-05-20T13:27:32.354Z,9.30
2023-05-20T13:30:01.338Z,11.80
2023-05-20T13:32:29.309Z,6.40
2023-05-20T13:34:56.618Z,8.70
2023-05-20T13:37:23.546Z,4.90
2023-05-20T13:39:50.819Z,8.40
2023-05-20T13:42:17.936Z,10.70
2023-05-20T13:44:45.238Z,13.50
2023-05-20T13:47:12.244Z,8.90
2023-05-20T13:49:39.429Z,6.20
2023-05-20T13:52:09.006Z,9.60
2023-05-20T13:54:35.871Z,11.30
2023-05-20T13:57:07.311Z,8.50
2023-05-20T13:59:34.704Z,6.30
2023-05-20T14:02:02.621Z,12.70
2023-05-20T14:04:31.282Z,7.10
2023-05-20T14:06:59.822Z,13.10
2023-05-20T14:09:26.727Z,6.90
2023-05-20T14:11:53.946Z,9.70
2023-05-20T14:14:20.967Z,8.00
2023-05-20T14:16:48.390Z,8.90
2023-05-20T14:19:15.635Z,5.90
2023-05-20T14:21:42.567Z,10.10
2023-05-20T14:24:09.416Z,10.10
2023-05-20T14:26:36.594Z,10.10
2023-05-20T14:29:08.565Z,5.90
2023-05-20T14:31:38.019Z,8.10
2023-05-20T14:34:04.904Z,4.50
2023-05-20T14:36:32.189Z,8.20
2023-05-20T14:38:59.131Z,6.80
2023-05-20T14:41:26.037Z,7.40
2023-05-20T14:43:53.097Z,8.80
2023-05-20T14:46:20.559Z,9.60
2023-05-20T14:48:47.639Z,20.20
2023-05-20T14:51:19.704Z,6.00
2023-05-20T14:53:46.775Z,7.30
2023-05-20T14:56:18.990Z,8.80
2023-05-20T14:58:46.093Z,10.10
2023-05-20T15:01:13.253Z,8.70
2023-05-20T15:03:40.519Z,5.90
2023-05-20T15:06:07.468Z,8.80
2023-05-20T15:08:34.483Z,12.40
2023-05-20T15:11:01.493Z,6.90
2023-05-20T15:13:29.783Z,8.40
2023-05-20T15:15:56.660Z,9.60
2023-05-20T15:18:24.033Z,12.30
2023-05-20T15:20:51.466Z,8.50
2023-05-20T15:23:18.524Z,9.50
2023-05-20T15:25:45.440Z,9.30
2023-05-20T15:28:12.903Z,12.80
2023-05-20T15:30:40.033Z,7.40
2023-05-20T15:33:07.229Z,13.50
2023-05-20T15:35:34.234Z,7.60
2023-05-20T15:38:01.539Z,7.70
2023-05-20T15:40:28.707Z,12.00
2023-05-20T15:42:56.729Z,9.80
2023-05-20T15:45:23.558Z,11.70
2023-05-20T15:47:50.714Z,16.30
2023-05-20T15:50:18.016Z,12.30
2023-05-20T15:52:45.073Z,8.90
2023-05-20T15:55:12.168Z,12.10
2023-05-20T15:57:39.117Z,10.90
2023-05-20T16:00:09.940Z,10.00
2023-05-20T16:02:38.082Z,11.10
2023-05-20T16:05:11.304Z,9.40
2023-05-20T16:07:38.264Z,9.90
2023-05-20T16:10:06.348Z,9.40
2023-05-20T16:12:38.883Z,8.00
2023-05-20T16:15:06.928Z,8.70
2023-05-20T16:17:34.205Z,15.30
2023-05-20T16:20:01.327Z,10.70
2023-05-20T16:22:28.681Z,10.10
2023-05-20T16:24:55.689Z,7.60
2023-05-20T16:27:23.185Z,15.20
2023-05-20T16:29:50.142Z,10.80
2023-05-20T16:32:16.932Z,9.90
2023-05-20T16:34:43.870Z,10.70
2023-05-20T16:37:11.247Z,9.50
2023-05-20T16:39:38.133Z,14.70
2023-05-20T16:42:05.390Z,10.40
2023-05-20T16:44:37.966Z,13.40
2023-05-20T16:47:05.925Z,12.10
2023-05-20T16:49:33.560Z,10.70
2023-05-20T16:52:00.646Z,12.80
2023-05-20T16:54:27.601Z,10.10
2023-05-20T16:56:55.947Z,8.40
2023-05-20T16:59:34.445Z,13.90
2023-05-20T17:02:01.363Z,11.70
2023-05-20T17:04:28.625Z,13.50
2023-05-20T17:06:56.494Z,16.90
2023-05-20T17:09:23.809Z,11.30
2023-05-20T17:11:52.419Z,12.90
2023-05-20T17:14:19.343Z,17.20
2023-05-20T17:16:46.383Z,14.70
2023-05-20T17:19:13.350Z,12.50
2023-05-20T17:21:41.197Z,8.30
2023-05-20T17:24:08.195Z,14.20
2023-05-20T17:26:35.375Z,16.30
2023-05-20T17:29:07.867Z,11.50
2023-05-20T17:31:34.916Z,16.70
2023-05-20T17:34:02.061Z,16.30
2023-05-20T17:36:29.447Z,13.40
2023-05-20T17:38:56.695Z,12.00
2023-05-20T17:41:23.730Z,15.70
2023-05-20T17:43:51.038Z,14.60
2023-05-20T17:46:18.340Z,15.30
2023-05-20T17:48:45.435Z,14.80
2023-05-20T17:51:12.668Z,11.20
2023-05-20T17:53:39.852Z,11.50
2023-05-20T17:56:08.785Z,11.10
2023-05-20T17:58:42.062Z,10.60
2023-05-20T18:01:09.244Z,12.10
2023-05-20T18:03:36.915Z,15.70
2023-05-20T18:06:05.670Z,11.00
2023-05-20T18:08:33.319Z,10.80
2023-05-20T18:11:00.599Z,12.30
2023-05-20T18:13:27.711Z,10.50
2023-05-20T18:15:54.955Z,11.60
2023-05-20T18:18:22.038Z,9.70
2023-05-20T18:20:48.988Z,10.50
2023-05-20T18:23:15.912Z,9.40
2023-05-20T18:25:43.679Z,11.30
2023-05-20T18:28:12.425Z,11.30
2023-05-20T18:30:39.685Z,13.10
2023-05-20T18:33:06.841Z,11.30
2023-05-20T18:35:38.929Z,12.40
2023-05-20T18:38:06.585Z,11.90
2023-05-20T18:40:33.926Z,10.20
2023-05-20T18:43:01.227Z,11.60
2023-05-20T18:45:29.289Z,9.30
2023-05-20T18:47:58.909Z,11.60
2023-05-20T18:50:26.107Z,10.60
2023-05-20T18:52:53.261Z,14.50
2023-05-20T18:55:20.422Z,9.50
2023-05-20T18:57:47.351Z,10.60
2023-05-20T19:00:19.770Z,10.00
2023-05-20T19:02:47.113Z,12.00
2023-05-20T19:05:14.270Z,10.00
2023-05-20T19:07:41.360Z,13.50
2023-05-20T19:10:08.754Z,18.00
2023-05-20T19:12:36.061Z,24.70
2023-05-20T19:15:04.628Z,11.10
2023-05-20T19:17:32.234Z,13.30
2023-05-20T19:19:59.275Z,13.50
2023-05-20T19:22:26.400Z,18.50
2023-05-20T19:24:53.552Z,12.70
2023-05-20T19:27:21.212Z,20.80
2023-05-20T19:29:48.353Z,12.50
2023-05-20T19:32:20.404Z,15.70
2023-05-20T19:34:47.624Z,14.30
2023-05-20T19:37:14.564Z,14.30
2023-05-20T19:39:42.759Z,16.70
2023-05-20T19:42:14.922Z,12.60
2023-05-20T19:44:41.885Z,15.00
2023-05-20T19:47:08.794Z,15.50
2023-05-20T19:49:36.078Z,13.40
2023-05-20T19:52:03.164Z,15.60
2023-05-20T19:54:30.395Z,14.30
2023-05-20T19:56:57.369Z,13.30
2023-05-20T19:59:24.346Z,16.00
2023-05-20T20:01:51.809Z,14.50
2023-05-20T20:04:19.161Z,11.30
2023-05-20T20:06:47.443Z,12.40
2023-05-20T20:09:14.777Z,18.70
2023-05-20T20:11:52.118Z,12.40
2023-05-20T20:14:19.674Z,11.90
2023-05-20T20:16:48.209Z,13.50
2023-05-20T20:19:18.125Z,17.50
2023-05-20T20:21:46.005Z,9.90
2023-05-20T20:24:13.002Z,9.80
2023-05-20T20:26:40.133Z,13.30
2023-05-20T20:29:07.592Z,10.30
2023-05-20T20:31:35.374Z,10.80
2023-05-20T20:34:02.346Z,14.40
2023-05-20T20:36:34.437Z,7.90
2023-05-20T20:39:04.469Z,10.50
2023-05-20T20:41:32.499Z,7.60
2023-05-20T20:44:02.955Z,16.50
2023-05-20T20:46:30.640Z,11.00
2023-05-20T20:48:57.506Z,15.00
2023-05-20T20:51:24.587Z,12.00
2023-05-20T20:53:56.753Z,11.40
2023-05-20T20:56:25.178Z,8.70
2023-05-20T20:58:53.792Z,11.00
2023-05-20T21:01:26.048Z,15.30
2023-05-20T21:03:53.960Z,11.70
2023-05-20T21:06:20.985Z,11.10
2023-05-20T21:08:47.943Z,8.00
2023-05-20T21:11:15.283Z,10.00
2023-05-20T21:13:42.408Z,9.00
2023-05-20T21:16:15.159Z,6.70
2023-05-20T21:18:42.771Z,10.80
2023-05-20T21:21:13.519Z,10.30
2023-05-20T21:23:41.169Z,12.50
2023-05-20T21:26:08.448Z,10.40
2023-05-20T21:28:35.652Z,8.50
2023-05-20T21:31:02.910Z,7.20
2023-05-20T21:33:30.582Z,12.10
2023-05-20T21:35:57.737Z,7.00
2023-05-20T21:38:24.667Z,7.50
2023-05-20T21:40:51.574Z,8.50
2023-05-20T21:43:18.889Z,12.40
2023-05-20T21:45:46.184Z,11.30
2023-05-20T21:48:13.196Z,8.10
2023-05-20T21:50:45.400Z,10.30
2023-05-20T21:53:12.424Z,9.20
2023-05-20T21:55:39.286Z,8.10
2023-05-20T21:58:06.157Z,10.90
2023-05-20T22:00:33.122Z,9.20
2023-05-20T22:03:00.310Z,9.30
2023-05-20T22:05:27.792Z,9.20
2023-05-20T22:07:54.979Z,10.50
2023-05-20T22:10:23.345Z,7.90
2023-05-20T22:12:50.572Z,14.30
2023-05-20T22:15:17.557Z,12.50
2023-05-20T22:17:46.992Z,11.20
2023-05-20T22:20:14.620Z,9.50
2023-05-20T22:22:41.595Z,9.60
2023-05-20T22:25:09.130Z,7.80
2023-05-20T22:27:36.430Z,12.40
2023-05-20T22:30:07.816Z,9.00
2023-05-20T22:32:35.367Z,8.80
2023-05-20T22:35:03.178Z,8.20
2023-05-20T22:37:35.814Z,8.80
2023-05-20T22:40:03.732Z,9.00
2023-05-20T22:42:30.899Z,7.80
2023-05-20T22:44:57.893Z,9.10
2023-05-20T22:47:25.061Z,7.80
2023-05-20T22:49:52.014Z,8.60
2023-05-20T22:52:21.530Z,10.30
2023-05-20T22:54:55.627Z,7.60
2023-05-20T22:57:27.661Z,6.80
2023-05-20T22:59:55.173Z,7.70
2023-05-20T23:02:29.991Z,8.10
2023-05-20T23:04:57.205Z,9.40
2023-05-20T23:07:24.089Z,6.60
2023-05-20T23:09:51.016Z,7.30
2023-05-20T23:12:18.171Z,7.50
2023-05-20T23:14:45.755Z,8.80
2023-05-20T23:17:12.667Z,7.90
2023-05-20T23:19:40.090Z,8.40
2023-05-20T23:22:07.064Z,7.50
2023-05-20T23:24:36.422Z,6.30
2023-05-20T23:27:04.163Z,6.70
2023-05-20T23:29:32.001Z,7.10
2023-05-20T23:31:58.877Z,10.20
2023-05-20T23:34:27.012Z,8.00
2023-05-20T23:36:53.887Z,7.20
2023-05-20T23:39:20.820Z,7.20
2023-05-20T23:41:47.974Z,6.30
2023-05-20T23:44:15.236Z,5.20
2023-05-20T23:46:47.250Z,6.20
2023-05-20T23:49:17.818Z,9.30
2023-05-20T23:51:44.656Z,6.30
2023-05-20T23:54:20.996Z,6.30
2023-05-20T23:56:48.269Z,8.50
2023-05-20T23:59:15.075Z,8.70
